Overview Statistics Trail Chart Weather Telemetry Raw packets
 

This is the latest recevied weather packets stored in our database for station/object OE3XAM-13. If no packets are shown the sender has not sent any weather packets the latest 10 day(s).

<< 1 2 3 4 5 6 7 >>
Time Temp. Humidity Pressure Rain* Wind** Luminosity Snow
1788460888 19.44° C 69% 985 hPa 0.25 mm - - -
1788459088 21.11° C 60% 984 hPa 0 mm - - -
1788457288 22.78° C 49% 984 hPa 0 mm - - -
1788455490 24.44° C 41% 984 hPa 0 mm - - -
1788453688 25° C 38% 984 hPa 0 mm - - -
1788451888 25.56° C 36% 983 hPa 0 mm - - -
1788450088 26.11° C 35% 984 hPa 0 mm - - -
1788448288 27.22° C 32% 984 hPa 0 mm - - -
1788446488 27.78° C 32% 983 hPa 0 mm - - -
1788444688 27.78° C 31% 984 hPa 0 mm - - -
1788442888 29.44° C 29% 984 hPa 0 mm - - -
1788441088 28.33° C 30% 984 hPa 0 mm - - -
1788439288 27.78° C 34% 985 hPa 0 mm - - -
1788437488 27.22° C 35% 984 hPa 0 mm - - -
1788435688 26.67° C 38% 985 hPa 0 mm - - -
1788433888 27.22° C 37% 985 hPa 0 mm - - -
1788432088 26.11° C 38% 985 hPa 0 mm - - -
1788430288 25.56° C 38% 985 hPa 0 mm - - -
1788428488 26.11° C 42% 986 hPa 0 mm - - -
1788426688 24.44° C 48% 986 hPa 0 mm - - -
1788424888 22.22° C 59% 986 hPa 0 mm - - -
1788423088 21.11° C 64% 986 hPa 0 mm - - -
1788421288 19.44° C 76% 986 hPa 0 mm - - -
1788419488 18.33° C 79% 986 hPa 0 mm - - -
1788417688 17.78° C 80% 986 hPa 0 mm - - -

* Rain latest hour (hover to see other rain measurements)
** Current wind speed in m/s (hover to see current wind gust speed)